createdAt,value
2023-04-21T00:01:14.927Z,64.61
2023-04-21T00:03:43.240Z,64.49
2023-04-21T00:06:11.002Z,64.73
2023-04-21T00:08:40.796Z,64.63
2023-04-21T00:11:08.489Z,64.66
2023-04-21T00:13:36.289Z,64.71
2023-04-21T00:16:03.939Z,64.70
2023-04-21T00:18:31.852Z,64.72
2023-04-21T00:20:59.631Z,64.35
2023-04-21T00:23:27.193Z,64.72
2023-04-21T00:25:54.859Z,64.68
2023-04-21T00:28:22.504Z,64.77
2023-04-21T00:30:50.485Z,64.73
2023-04-21T00:33:18.309Z,64.69
2023-04-21T00:35:45.902Z,64.61
2023-04-21T00:38:13.581Z,64.71
2023-04-21T00:40:41.173Z,64.57
2023-04-21T00:43:08.893Z,64.13
2023-04-21T00:45:36.657Z,64.75
2023-04-21T00:48:04.450Z,64.59
2023-04-21T00:50:32.569Z,64.79
2023-04-21T00:53:00.168Z,64.86
2023-04-21T00:55:28.162Z,64.81
2023-04-21T00:57:55.827Z,64.95
2023-04-21T01:00:23.482Z,64.62
2023-04-21T01:02:51.268Z,64.58
2023-04-21T01:05:19.359Z,64.69
2023-04-21T01:07:47.397Z,64.63
2023-04-21T01:10:15.258Z,64.73
2023-04-21T01:12:43.218Z,64.83
2023-04-21T01:15:11.235Z,64.75
2023-04-21T01:17:40.476Z,64.68
2023-04-21T01:20:09.101Z,65.32
2023-04-21T01:22:36.912Z,64.98
2023-04-21T01:25:04.850Z,65.01
2023-04-21T01:27:32.413Z,64.79
2023-04-21T01:30:00.030Z,65.17
2023-04-21T01:32:28.085Z,64.88
2023-04-21T01:34:56.877Z,64.96
2023-04-21T01:37:24.484Z,64.85
2023-04-21T01:39:54.300Z,65.08
2023-04-21T01:42:21.921Z,65.01
2023-04-21T01:44:50.117Z,65.18
2023-04-21T01:47:17.737Z,65.28
2023-04-21T01:49:45.317Z,65.63
2023-04-21T01:52:12.922Z,64.93
2023-04-21T01:54:40.572Z,65.46
2023-04-21T01:57:08.976Z,65.37
2023-04-21T01:59:36.612Z,64.98
2023-04-21T02:02:04.460Z,65.67
2023-04-21T02:04:32.310Z,65.62
2023-04-21T02:07:00.127Z,65.79
2023-04-21T02:09:27.794Z,65.86
2023-04-21T02:11:55.545Z,66.07
2023-04-21T02:14:23.140Z,65.86
2023-04-21T02:16:50.817Z,66.40
2023-04-21T02:19:18.931Z,65.72
2023-04-21T02:21:47.101Z,66.15
2023-04-21T02:24:14.882Z,65.74
2023-04-21T02:26:42.465Z,66.35
2023-04-21T02:29:10.032Z,66.26
2023-04-21T02:31:49.732Z,66.47
2023-04-21T02:34:22.412Z,66.42
2023-04-21T02:36:50.051Z,66.23
2023-04-21T02:39:17.819Z,66.68
2023-04-21T02:41:45.664Z,66.68
2023-04-21T02:44:13.319Z,66.36
2023-04-21T02:46:41.520Z,66.35
2023-04-21T02:49:09.160Z,66.42
2023-04-21T02:51:36.775Z,66.58
2023-04-21T02:54:04.363Z,66.72
2023-04-21T02:56:32.101Z,67.20
2023-04-21T02:58:59.792Z,67.27
2023-04-21T03:01:27.454Z,67.79
2023-04-21T03:03:55.193Z,67.22
2023-04-21T03:06:22.964Z,67.53
2023-04-21T03:08:50.619Z,67.49
2023-04-21T03:11:18.534Z,67.59
2023-04-21T03:13:46.295Z,67.37
2023-04-21T03:16:14.330Z,67.52
2023-04-21T03:18:41.970Z,67.73
2023-04-21T03:21:10.079Z,67.82
2023-04-21T03:23:38.044Z,66.98
2023-04-21T03:26:05.619Z,67.02
2023-04-21T03:28:33.232Z,67.17
2023-04-21T03:31:00.809Z,67.44
2023-04-21T03:33:28.425Z,66.75
2023-04-21T03:35:56.402Z,67.46
2023-04-21T03:38:23.985Z,67.25
2023-04-21T03:40:51.600Z,66.56
2023-04-21T03:43:19.711Z,66.53
2023-04-21T03:45:47.363Z,67.20
2023-04-21T03:48:15.321Z,66.69
2023-04-21T03:50:42.965Z,66.95
2023-04-21T03:53:10.543Z,66.84
2023-04-21T03:55:38.100Z,66.10
2023-04-21T03:58:05.775Z,66.92
2023-04-21T04:00:33.695Z,66.84
2023-04-21T04:03:01.397Z,66.60
2023-04-21T04:05:29.597Z,67.06
2023-04-21T04:07:57.200Z,67.08
2023-04-21T04:10:24.794Z,67.08
2023-04-21T04:12:52.411Z,66.90
2023-04-21T04:15:20.194Z,66.97
2023-04-21T04:17:47.841Z,66.46
2023-04-21T04:20:15.498Z,66.83
2023-04-21T04:22:43.100Z,67.12
2023-04-21T04:25:13.265Z,66.91
2023-04-21T04:27:41.423Z,66.92
2023-04-21T04:30:09.579Z,67.01
2023-04-21T04:32:38.288Z,67.00
2023-04-21T04:35:05.952Z,67.13
2023-04-21T04:37:34.902Z,67.14
2023-04-21T04:40:02.570Z,67.24
2023-04-21T04:42:30.519Z,66.93
2023-04-21T04:45:01.877Z,67.00
2023-04-21T04:47:29.865Z,66.79
2023-04-21T04:49:59.506Z,67.08
2023-04-21T04:52:27.139Z,67.11
2023-04-21T04:54:54.771Z,66.90
2023-04-21T04:57:22.473Z,67.50
2023-04-21T04:59:50.112Z,67.10
2023-04-21T05:02:18.180Z,67.43
2023-04-21T05:04:45.965Z,67.51
2023-04-21T05:07:13.747Z,67.17
2023-04-21T05:09:41.311Z,67.32
2023-04-21T05:12:09.367Z,66.49
2023-04-21T05:14:37.632Z,67.07
2023-04-21T05:17:05.323Z,67.33
2023-04-21T05:19:33.054Z,66.80
2023-04-21T05:22:02.090Z,66.92
2023-04-21T05:24:29.797Z,67.16
2023-04-21T05:26:58.168Z,66.77
2023-04-21T05:29:25.807Z,66.81
2023-04-21T05:31:53.525Z,66.91
2023-04-21T05:34:21.544Z,67.55
2023-04-21T05:36:49.349Z,66.78
2023-04-21T05:39:18.301Z,66.87
2023-04-21T05:41:46.053Z,66.94
2023-04-21T05:44:13.928Z,66.89
2023-04-21T05:46:41.625Z,67.51
2023-04-21T05:49:09.601Z,66.91
2023-04-21T05:51:38.119Z,67.36
2023-04-21T05:54:05.797Z,67.10
2023-04-21T05:56:33.921Z,67.44
2023-04-21T05:59:01.533Z,66.67
2023-04-21T06:01:29.195Z,66.80
2023-04-21T06:03:57.707Z,66.72
2023-04-21T06:06:25.598Z,66.80
2023-04-21T06:08:53.221Z,66.51
2023-04-21T06:11:20.926Z,66.34
2023-04-21T06:13:48.773Z,66.49
2023-04-21T06:16:16.477Z,66.36
2023-04-21T06:18:44.638Z,66.43
2023-04-21T06:21:12.279Z,66.54
2023-04-21T06:23:39.932Z,66.35
2023-04-21T06:26:07.763Z,66.20
2023-04-21T06:28:35.938Z,66.17
2023-04-21T06:31:05.317Z,66.41
2023-04-21T06:33:34.704Z,66.14
2023-04-21T06:36:02.372Z,66.20
2023-04-21T06:38:30.119Z,66.30
2023-04-21T06:41:00.136Z,66.12
2023-04-21T06:43:27.844Z,66.03
2023-04-21T06:45:55.545Z,65.88
2023-04-21T06:48:24.671Z,65.83
2023-04-21T06:50:52.392Z,65.83
2023-04-21T06:53:22.155Z,65.42
2023-04-21T06:55:49.984Z,65.01
2023-04-21T06:58:19.814Z,64.92
2023-04-21T07:00:48.870Z,64.73
2023-04-21T07:03:16.826Z,65.25
2023-04-21T07:05:45.215Z,64.93
2023-04-21T07:08:13.065Z,64.80
2023-04-21T07:10:41.309Z,64.82
2023-04-21T07:13:10.136Z,64.77
2023-04-21T07:15:38.099Z,64.80
2023-04-21T07:18:06.735Z,64.94
2023-04-21T07:20:34.660Z,64.83
2023-04-21T07:23:02.646Z,64.86
2023-04-21T07:25:30.914Z,65.47
2023-04-21T07:27:58.724Z,65.47
2023-04-21T07:30:26.820Z,65.47
2023-04-21T07:32:54.825Z,65.91
2023-04-21T07:35:22.595Z,66.26
2023-04-21T07:37:50.447Z,66.60
2023-04-21T07:40:18.494Z,66.25
2023-04-21T07:42:46.915Z,66.67
2023-04-21T07:45:14.808Z,66.48
2023-04-21T07:47:43.285Z,66.26
2023-04-21T07:50:11.312Z,66.32
2023-04-21T07:52:39.092Z,66.52
2023-04-21T07:55:07.627Z,66.56
2023-04-21T07:57:38.652Z,66.86
2023-04-21T08:00:06.494Z,66.68
2023-04-21T08:02:34.614Z,66.53
2023-04-21T08:05:02.570Z,66.50
2023-04-21T08:07:31.211Z,66.14
2023-04-21T08:10:00.468Z,66.55
2023-04-21T08:12:28.358Z,66.46
2023-04-21T08:14:56.262Z,66.68
2023-04-21T08:17:24.318Z,66.26
2023-04-21T08:19:52.866Z,66.76
2023-04-21T08:22:20.781Z,66.54
2023-04-21T08:24:48.730Z,66.74
2023-04-21T08:27:16.635Z,66.77
2023-04-21T08:29:44.404Z,66.42
2023-04-21T08:32:13.383Z,66.39
2023-04-21T08:34:41.298Z,67.07
2023-04-21T08:37:09.101Z,66.85
2023-04-21T08:39:36.946Z,66.43
2023-04-21T08:42:04.785Z,66.79
2023-04-21T08:44:33.023Z,66.95
2023-04-21T08:47:00.980Z,67.12
2023-04-21T08:49:28.880Z,67.23
2023-04-21T08:51:56.664Z,66.80
2023-04-21T08:54:24.830Z,66.60
2023-04-21T08:56:56.972Z,66.71
2023-04-21T08:59:32.711Z,66.58
2023-04-21T09:02:00.736Z,66.58
2023-04-21T09:04:28.854Z,65.81
2023-04-21T09:06:57.542Z,65.46
2023-04-21T09:09:25.482Z,65.91
2023-04-21T09:11:53.460Z,65.62
2023-04-21T09:14:21.412Z,65.78
2023-04-21T09:16:49.345Z,65.17
2023-04-21T09:19:18.632Z,65.62
2023-04-21T09:21:46.827Z,65.60
2023-04-21T09:24:14.733Z,65.48
2023-04-21T09:26:42.591Z,65.36
2023-04-21T09:29:10.648Z,65.74
2023-04-21T09:31:39.265Z,65.71
2023-04-21T09:34:07.453Z,65.52
2023-04-21T09:36:35.864Z,66.02
2023-04-21T09:41:34.640Z,65.79
2023-04-21T09:44:16.635Z,65.77
2023-04-21T09:46:45.218Z,65.91
2023-04-21T09:49:13.355Z,65.24
2023-04-21T09:54:25.975Z,65.26
2023-04-21T09:56:57.925Z,64.97
2023-04-21T09:59:25.709Z,64.87
2023-04-21T10:01:53.470Z,65.03
2023-04-21T10:04:23.090Z,64.61
2023-04-21T10:06:51.297Z,64.26
2023-04-21T10:09:19.197Z,63.52
2023-04-21T10:11:47.004Z,63.00
2023-04-21T10:14:15.255Z,62.66
2023-04-21T10:16:43.797Z,61.76
2023-04-21T10:19:12.845Z,60.80
2023-04-21T10:21:40.871Z,59.18
2023-04-21T10:24:08.834Z,57.19
2023-04-21T10:26:36.840Z,56.71
2023-04-21T10:29:05.133Z,56.00
2023-04-21T10:31:33.009Z,56.17
2023-04-21T10:34:01.191Z,56.65
2023-04-21T10:36:29.024Z,57.92
2023-04-21T10:38:56.829Z,58.70
2023-04-21T10:41:26.394Z,59.56
2023-04-21T10:43:54.213Z,60.31
2023-04-21T10:46:22.159Z,60.45
2023-04-21T10:48:50.183Z,61.23
2023-04-21T10:51:18.085Z,61.69
2023-04-21T10:53:47.923Z,61.92
2023-04-21T10:56:16.037Z,62.39
2023-04-21T10:58:43.801Z,62.07
2023-04-21T11:01:11.767Z,62.34
2023-04-21T11:03:39.893Z,62.65
2023-04-21T11:06:08.193Z,63.10
2023-04-21T11:08:38.181Z,62.79
2023-04-21T11:11:06.619Z,62.80
2023-04-21T11:13:35.244Z,62.99
2023-04-21T11:16:03.292Z,62.74
2023-04-21T11:18:31.868Z,62.75
2023-04-21T11:20:59.770Z,62.99
2023-04-21T11:23:27.642Z,63.03
2023-04-21T11:25:56.169Z,62.91
2023-04-21T11:28:24.151Z,63.08
2023-04-21T11:30:52.622Z,62.67
2023-04-21T11:33:20.674Z,62.60
2023-04-21T11:35:48.766Z,62.65
2023-04-21T11:38:18.865Z,61.91
2023-04-21T11:40:46.926Z,62.20
2023-04-21T11:43:15.208Z,62.25
2023-04-21T11:45:43.011Z,61.94
2023-04-21T11:48:11.748Z,61.80
2023-04-21T11:50:39.564Z,61.86
2023-04-21T11:53:07.457Z,61.54
2023-04-21T11:55:37.836Z,60.66
2023-04-21T11:58:06.211Z,60.38
2023-04-21T12:00:34.104Z,59.71
2023-04-21T12:03:02.173Z,58.90
2023-04-21T12:05:30.069Z,58.80
2023-04-21T12:07:58.311Z,59.34
2023-04-21T12:10:26.619Z,58.64
2023-04-21T12:12:54.473Z,58.45
2023-04-21T12:15:23.504Z,58.19
2023-04-21T12:17:51.506Z,57.92
2023-04-21T12:20:19.954Z,57.63
2023-04-21T12:22:47.854Z,57.57
2023-04-21T12:25:15.858Z,57.68
2023-04-21T12:27:43.687Z,57.63
2023-04-21T12:30:11.582Z,57.30
2023-04-21T12:32:39.958Z,57.02
2023-04-21T12:35:07.778Z,56.51
2023-04-21T12:37:35.543Z,56.54
2023-04-21T12:40:03.603Z,56.82
2023-04-21T12:42:31.452Z,56.89
2023-04-21T12:44:59.359Z,57.57
2023-04-21T12:47:27.293Z,57.78
2023-04-21T12:49:55.246Z,57.41
2023-04-21T12:52:23.160Z,57.66
2023-04-21T12:54:51.529Z,57.09
2023-04-21T12:57:20.027Z,56.39
2023-04-21T12:59:48.213Z,55.01
2023-04-21T13:02:16.609Z,53.99
2023-04-21T13:04:44.662Z,53.53
2023-04-21T13:07:12.640Z,52.56
2023-04-21T13:09:41.148Z,52.30
2023-04-21T13:12:08.975Z,52.33
2023-04-21T13:14:36.872Z,51.66
2023-04-21T13:17:05.727Z,51.29
2023-04-21T13:19:33.740Z,51.41
2023-04-21T13:22:02.510Z,51.25
2023-04-21T13:24:30.565Z,51.78
2023-04-21T13:26:58.755Z,51.52
2023-04-21T13:29:30.445Z,50.85
2023-04-21T13:31:58.634Z,51.38
2023-04-21T13:34:27.135Z,51.14
2023-04-21T13:36:55.085Z,50.99
2023-04-21T13:39:23.533Z,51.09
2023-04-21T13:41:53.505Z,51.03
2023-04-21T13:44:22.727Z,50.57
2023-04-21T13:46:52.544Z,51.10
2023-04-21T13:49:20.529Z,52.03
2023-04-21T13:51:48.405Z,52.19
2023-04-21T13:54:16.466Z,52.42
2023-04-21T13:56:44.390Z,53.46
2023-04-21T13:59:15.343Z,53.04
2023-04-21T14:01:43.402Z,53.92
2023-04-21T14:04:11.450Z,54.33
2023-04-21T14:06:39.496Z,54.29
2023-04-21T14:09:09.314Z,54.25
2023-04-21T14:11:37.748Z,54.87
2023-04-21T14:16:36.503Z,55.09
2023-04-21T14:19:04.519Z,55.73
2023-04-21T14:21:32.950Z,55.92
2023-04-21T14:24:01.486Z,56.25
2023-04-21T14:26:29.403Z,56.63
2023-04-21T14:28:57.209Z,56.97
2023-04-21T14:31:25.208Z,57.37
2023-04-21T14:33:53.126Z,57.55
2023-04-21T14:36:21.602Z,57.44
2023-04-21T14:38:49.556Z,57.50
2023-04-21T14:41:17.456Z,57.32
2023-04-21T14:43:47.592Z,57.36
2023-04-21T14:46:16.989Z,57.15
2023-04-21T14:48:45.381Z,57.38
2023-04-21T14:51:13.259Z,57.21
2023-04-21T14:53:41.657Z,57.60
2023-04-21T14:56:09.480Z,57.80
2023-04-21T14:58:37.444Z,57.65
2023-04-21T15:01:06.048Z,57.80
2023-04-21T15:03:34.067Z,58.19
2023-04-21T15:06:02.406Z,58.03
2023-04-21T15:08:30.438Z,58.07
2023-04-21T15:10:58.144Z,58.53
2023-04-21T15:13:26.573Z,58.25
2023-04-21T15:15:54.408Z,58.59
2023-04-21T15:18:22.267Z,58.25
2023-04-21T15:20:50.050Z,57.97
2023-04-21T15:23:17.905Z,58.23
2023-04-21T15:25:46.798Z,58.05
2023-04-21T15:28:15.040Z,58.41
2023-04-21T15:30:42.950Z,58.44
2023-04-21T15:33:11.762Z,57.70
2023-04-21T15:35:39.597Z,58.10
2023-04-21T15:38:08.268Z,58.32
2023-04-21T15:40:39.274Z,57.92
2023-04-21T15:43:11.554Z,57.91
2023-04-21T15:45:39.562Z,57.95
2023-04-21T15:48:07.501Z,57.76
2023-04-21T15:50:35.791Z,57.97
2023-04-21T15:53:03.584Z,57.69
2023-04-21T15:55:31.343Z,58.04
2023-04-21T15:57:59.278Z,57.97
2023-04-21T16:00:27.187Z,58.13
2023-04-21T16:02:56.295Z,57.82
2023-04-21T16:05:27.428Z,57.71
2023-04-21T16:07:56.832Z,58.00
2023-04-21T16:10:25.094Z,58.19
2023-04-21T16:12:52.916Z,58.00
2023-04-21T16:15:24.773Z,57.76
2023-04-21T16:17:53.015Z,56.66
2023-04-21T16:20:20.961Z,56.43
2023-04-21T16:22:48.753Z,56.11
2023-04-21T16:25:19.274Z,56.18
2023-04-21T16:27:48.191Z,56.53
2023-04-21T16:30:16.542Z,56.53
2023-04-21T16:32:44.582Z,56.38
2023-04-21T16:35:12.510Z,56.09
2023-04-21T16:37:42.895Z,56.32
2023-04-21T16:40:11.576Z,56.07
2023-04-21T16:42:39.494Z,56.08
2023-04-21T16:45:07.439Z,56.27
2023-04-21T16:47:41.336Z,56.29
2023-04-21T16:50:10.287Z,56.60
2023-04-21T16:52:39.493Z,56.54
2023-04-21T16:55:07.526Z,56.93
2023-04-21T16:57:35.555Z,56.43
2023-04-21T17:00:05.799Z,56.42
2023-04-21T17:02:33.744Z,56.69
2023-04-21T17:05:01.838Z,56.54
2023-04-21T17:07:31.622Z,56.86
2023-04-21T17:09:59.472Z,57.11
2023-04-21T17:12:27.310Z,57.36
2023-04-21T17:14:55.534Z,57.67
2023-04-21T17:17:24.327Z,57.70
2023-04-21T17:19:52.542Z,58.25
2023-04-21T17:22:20.380Z,57.66
2023-04-21T17:24:53.592Z,58.39
2023-04-21T17:27:22.046Z,58.91
2023-04-21T17:29:51.005Z,58.63
2023-04-21T17:32:18.980Z,59.04
2023-04-21T17:34:46.926Z,59.09
2023-04-21T17:37:15.780Z,59.57
2023-04-21T17:39:43.742Z,59.26
2023-04-21T17:42:12.537Z,59.32
2023-04-21T17:44:42.147Z,59.66
2023-04-21T17:47:10.002Z,59.31
2023-04-21T17:49:38.056Z,59.45
2023-04-21T17:52:06.054Z,60.00
2023-04-21T17:54:34.406Z,59.87
2023-04-21T17:57:03.061Z,59.88
2023-04-21T17:59:31.000Z,59.99
2023-04-21T18:01:59.410Z,59.90
2023-04-21T18:04:29.968Z,59.63
2023-04-21T18:06:59.226Z,59.49
2023-04-21T18:09:27.192Z,59.51
2023-04-21T18:11:55.417Z,59.48
2023-04-21T18:14:23.906Z,59.25
2023-04-21T18:16:51.784Z,59.51
2023-04-21T18:19:20.305Z,59.70
2023-04-21T18:21:48.126Z,59.44
2023-04-21T18:24:15.930Z,59.82
2023-04-21T18:26:43.930Z,60.13
2023-04-21T18:29:11.799Z,60.03
2023-04-21T18:31:40.181Z,60.65
2023-04-21T18:34:09.095Z,60.79
2023-04-21T18:36:38.626Z,61.33
2023-04-21T18:39:06.700Z,61.28
2023-04-21T18:41:34.934Z,61.43
2023-04-21T18:44:03.725Z,61.82
2023-04-21T18:46:31.543Z,62.30
2023-04-21T18:48:59.577Z,62.84
2023-04-21T18:51:27.592Z,63.07
2023-04-21T18:53:55.602Z,62.86
2023-04-21T18:56:23.867Z,63.29
2023-04-21T18:58:51.757Z,63.90
2023-04-21T19:01:19.630Z,64.14
2023-04-21T19:03:47.948Z,64.20
2023-04-21T19:06:15.946Z,64.61
2023-04-21T19:08:44.493Z,64.46
2023-04-21T19:11:12.434Z,65.43
2023-04-21T19:13:40.312Z,64.61
2023-04-21T19:16:08.966Z,65.15
2023-04-21T19:18:36.926Z,64.92
2023-04-21T19:21:06.521Z,65.25
2023-04-21T19:23:34.279Z,65.30
2023-04-21T19:26:05.393Z,65.32
2023-04-21T19:28:33.134Z,65.73
2023-04-21T19:31:01.028Z,65.62
2023-04-21T19:33:29.347Z,65.75
2023-04-21T19:35:57.222Z,65.65
2023-04-21T19:38:25.205Z,65.75
2023-04-21T19:40:53.129Z,65.59
2023-04-21T19:43:21.851Z,65.75
2023-04-21T19:45:50.438Z,65.49
2023-04-21T19:48:18.926Z,65.93
2023-04-21T19:50:47.218Z,65.44
2023-04-21T19:53:15.179Z,65.32
2023-04-21T19:55:43.195Z,65.38
2023-04-21T19:58:11.776Z,65.41
2023-04-21T20:00:39.685Z,65.94
2023-04-21T20:03:07.859Z,65.27
2023-04-21T20:05:35.928Z,65.86
2023-04-21T20:08:03.709Z,65.42
2023-04-21T20:10:38.478Z,66.32
2023-04-21T20:13:06.295Z,65.72
2023-04-21T20:15:34.353Z,65.58
2023-04-21T20:18:02.388Z,66.76
2023-04-21T20:20:31.191Z,66.79
2023-04-21T20:22:59.727Z,66.87
2023-04-21T20:25:27.605Z,67.30
2023-04-21T20:27:55.418Z,68.75
2023-04-21T20:30:23.278Z,68.79
2023-04-21T20:32:51.429Z,69.92
2023-04-21T20:35:20.118Z,70.15
2023-04-21T20:37:48.182Z,69.76
2023-04-21T20:40:16.128Z,70.15
2023-04-21T20:42:45.100Z,70.34
2023-04-21T20:45:13.143Z,70.16
2023-04-21T20:47:41.900Z,70.09
2023-04-21T20:50:10.233Z,69.83
2023-04-21T20:52:38.101Z,69.33
2023-04-21T20:55:06.575Z,69.65
2023-04-21T20:57:34.496Z,69.80
2023-04-21T21:00:02.902Z,69.57
2023-04-21T21:02:30.868Z,69.47
2023-04-21T21:04:58.805Z,69.76
2023-04-21T21:07:26.767Z,69.36
2023-04-21T21:09:54.680Z,69.68
2023-04-21T21:12:23.294Z,70.43
2023-04-21T21:14:51.029Z,69.84
2023-04-21T21:17:19.658Z,70.26
2023-04-21T21:19:47.575Z,70.20
2023-04-21T21:22:15.434Z,70.02
2023-04-21T21:24:43.699Z,70.34
2023-04-21T21:27:11.665Z,70.37
2023-04-21T21:29:39.832Z,70.33
2023-04-21T21:32:08.141Z,70.26
2023-04-21T21:34:36.016Z,69.63
2023-04-21T21:37:05.151Z,70.01
2023-04-21T21:39:33.824Z,69.94
2023-04-21T21:42:01.670Z,70.24
2023-04-21T21:44:29.389Z,69.91
2023-04-21T21:46:57.318Z,69.61
2023-04-21T21:49:25.800Z,69.83
2023-04-21T21:51:54.785Z,69.29
2023-04-21T21:54:22.562Z,69.50
2023-04-21T21:56:50.249Z,69.35
2023-04-21T21:59:18.163Z,69.69
2023-04-21T22:01:46.701Z,69.49
2023-04-21T22:04:14.571Z,68.72
2023-04-21T22:06:42.568Z,69.15
2023-04-21T22:09:10.438Z,69.09
2023-04-21T22:11:38.300Z,69.20
2023-04-21T22:14:19.034Z,69.28
2023-04-21T22:16:50.793Z,68.85
2023-04-21T22:19:19.323Z,69.57
2023-04-21T22:21:47.459Z,69.60
2023-04-21T22:24:15.823Z,69.42
2023-04-21T22:26:43.602Z,70.03
2023-04-21T22:29:11.308Z,70.46
2023-04-21T22:31:39.093Z,70.27
2023-04-21T22:34:06.827Z,70.23
2023-04-21T22:36:34.955Z,70.31
2023-04-21T22:39:02.767Z,70.46
2023-04-21T22:41:30.425Z,70.61
2023-04-21T22:43:58.426Z,70.60
2023-04-21T22:46:26.200Z,70.92
2023-04-21T22:48:54.972Z,70.85
2023-04-21T22:51:23.273Z,71.05
2023-04-21T22:53:51.065Z,71.16
2023-04-21T22:56:18.694Z,71.22
2023-04-21T22:58:46.346Z,71.30
2023-04-21T23:01:14.117Z,71.68
2023-04-21T23:03:41.938Z,71.41
2023-04-21T23:06:11.475Z,72.00
2023-04-21T23:08:39.085Z,72.28
2023-04-21T23:11:06.775Z,72.17
2023-04-21T23:13:34.991Z,71.76
2023-04-21T23:16:02.692Z,72.17
2023-04-21T23:18:30.596Z,72.70
2023-04-21T23:20:58.428Z,72.58
2023-04-21T23:23:26.166Z,72.79
2023-04-21T23:25:54.425Z,72.96
2023-04-21T23:28:22.974Z,72.58
2023-04-21T23:30:50.720Z,72.96
2023-04-21T23:33:18.488Z,73.26
2023-04-21T23:35:46.179Z,73.28
2023-04-21T23:38:14.231Z,72.83
2023-04-21T23:40:41.859Z,72.89
2023-04-21T23:43:09.481Z,73.13
2023-04-21T23:45:37.322Z,73.18
2023-04-21T23:48:05.195Z,73.26
2023-04-21T23:50:33.999Z,73.23
2023-04-21T23:53:01.838Z,73.21
2023-04-21T23:55:29.495Z,73.19
2023-04-21T23:57:57.083Z,73.75
